createdAt,value
2019-02-22T00:01:21.343Z,8.20
2019-02-22T00:03:50.742Z,8.10
2019-02-22T00:06:20.153Z,8.10
2019-02-22T00:08:49.541Z,8.10
2019-02-22T00:11:18.978Z,8.00
2019-02-22T00:13:48.385Z,8.10
2019-02-22T00:16:17.787Z,8.10
2019-02-22T00:18:47.211Z,8.10
2019-02-22T00:21:16.885Z,8.10
2019-02-22T00:23:46.605Z,8.10
2019-02-22T00:26:16.000Z,8.10
2019-02-22T00:28:45.689Z,8.10
2019-02-22T00:31:15.109Z,8.10
2019-02-22T00:33:44.511Z,8.10
2019-02-22T00:36:14.141Z,8.10
2019-02-22T00:38:43.630Z,8.10
2019-02-22T00:41:13.023Z,8.10
2019-02-22T00:43:42.457Z,8.10
2019-02-22T00:46:11.852Z,8.10
2019-02-22T00:48:41.334Z,8.10
2019-02-22T00:51:11.026Z,8.10
2019-02-22T00:53:40.451Z,8.10
2019-02-22T00:56:10.138Z,8.10
2019-02-22T00:58:39.551Z,8.10
2019-02-22T01:01:08.984Z,8.10
2019-02-22T01:03:38.673Z,8.00
2019-02-22T01:06:08.099Z,7.90
2019-02-22T01:08:37.809Z,7.90
2019-02-22T01:11:07.484Z,7.90
2019-02-22T01:13:36.895Z,7.90
2019-02-22T01:16:06.335Z,7.90
2019-02-22T01:18:35.775Z,7.90
2019-02-22T01:21:05.264Z,7.90
2019-02-22T01:23:34.664Z,7.80
2019-02-22T01:26:04.070Z,7.80
2019-02-22T01:28:33.561Z,7.80
2019-02-22T01:31:02.967Z,7.80
2019-02-22T01:33:32.360Z,7.80
2019-02-22T01:36:01.775Z,7.70
2019-02-22T01:38:31.190Z,7.70
2019-02-22T01:41:00.582Z,7.80
2019-02-22T01:43:30.003Z,7.80
2019-02-22T01:45:59.491Z,7.80
2019-02-22T01:48:28.939Z,7.80
2019-02-22T01:50:58.329Z,7.70
2019-02-22T01:53:27.742Z,7.70
2019-02-22T01:55:57.158Z,7.70
2019-02-22T01:58:26.649Z,7.70
2019-02-22T02:00:56.080Z,7.70
2019-02-22T02:03:25.498Z,7.70
2019-02-22T02:05:54.886Z,7.60
2019-02-22T02:08:24.313Z,7.60
2019-02-22T02:10:54.534Z,7.60
2019-02-22T02:13:24.079Z,7.70
2019-02-22T02:15:53.543Z,7.70
2019-02-22T02:18:22.987Z,7.70
2019-02-22T02:20:52.600Z,7.70
2019-02-22T02:23:22.063Z,7.70
2019-02-22T02:25:51.486Z,7.70
2019-02-22T02:28:21.170Z,7.70
2019-02-22T02:30:50.614Z,7.70
2019-02-22T02:33:20.036Z,7.70
2019-02-22T02:35:49.438Z,7.60
2019-02-22T02:38:18.856Z,7.60
2019-02-22T02:40:48.255Z,7.60
2019-02-22T02:43:17.701Z,7.60
2019-02-22T02:45:47.459Z,7.60
2019-02-22T02:48:16.866Z,7.60
2019-02-22T02:50:46.349Z,7.60
2019-02-22T02:53:15.762Z,7.60
2019-02-22T02:55:45.177Z,7.60
2019-02-22T02:58:14.732Z,7.60
2019-02-22T03:00:44.130Z,7.60
2019-02-22T03:03:13.554Z,7.60
2019-02-22T03:05:59.648Z,7.60
2019-02-22T03:08:30.708Z,7.60
2019-02-22T03:11:00.111Z,7.60
2019-02-22T03:13:29.516Z,7.60
2019-02-22T03:15:58.915Z,7.60
2019-02-22T03:18:28.322Z,7.60
2019-02-22T03:20:57.751Z,7.60
2019-02-22T03:23:27.154Z,7.60
2019-02-22T03:25:56.618Z,7.60
2019-02-22T03:28:26.016Z,7.60
2019-02-22T03:30:55.421Z,7.60
2019-02-22T03:33:24.863Z,7.60
2019-02-22T03:35:54.266Z,7.60
2019-02-22T03:38:23.717Z,7.60
2019-02-22T03:40:53.104Z,7.70
2019-02-22T03:43:22.506Z,7.70
2019-02-22T03:45:51.936Z,7.70
2019-02-22T03:48:21.335Z,7.70
2019-02-22T03:50:50.849Z,7.70
2019-02-22T03:53:21.889Z,7.70
2019-02-22T03:55:51.370Z,7.70
2019-02-22T03:58:20.862Z,7.70
2019-02-22T04:00:50.350Z,7.70
2019-02-22T04:03:19.828Z,7.70
2019-02-22T04:05:49.243Z,7.70
2019-02-22T04:08:18.957Z,7.70
2019-02-22T04:10:48.376Z,7.60
2019-02-22T04:13:17.759Z,7.60
2019-02-22T04:15:47.423Z,7.60
2019-02-22T04:18:16.817Z,7.70
2019-02-22T04:20:46.243Z,7.70
2019-02-22T04:23:15.669Z,7.70
2019-02-22T04:25:45.167Z,7.70
2019-02-22T04:28:14.579Z,7.60
2019-02-22T04:30:43.983Z,7.70
2019-02-22T04:33:13.441Z,7.60
2019-02-22T04:35:42.846Z,7.70
2019-02-22T04:38:12.508Z,7.70
2019-02-22T04:40:41.942Z,7.70
2019-02-22T04:43:11.341Z,7.70
2019-02-22T04:45:40.839Z,7.70
2019-02-22T04:48:10.261Z,7.70
2019-02-22T04:50:39.670Z,7.70
2019-02-22T04:53:09.100Z,7.70
2019-02-22T04:55:38.536Z,7.70
2019-02-22T04:58:07.950Z,7.70
2019-02-22T05:00:37.358Z,7.70
2019-02-22T05:03:06.791Z,7.70
2019-02-22T05:05:36.197Z,7.70
2019-02-22T05:08:05.610Z,7.70
2019-02-22T05:10:35.302Z,7.70
2019-02-22T05:13:04.874Z,7.70
2019-02-22T05:15:34.343Z,7.70
2019-02-22T05:18:03.749Z,7.70
2019-02-22T05:20:33.156Z,7.70
2019-02-22T05:23:04.006Z,7.70
2019-02-22T05:25:33.714Z,7.70
2019-02-22T05:28:03.152Z,7.60
2019-02-22T05:30:32.575Z,7.70
2019-02-22T05:33:01.964Z,7.70
2019-02-22T05:35:31.394Z,7.70
2019-02-22T05:38:00.811Z,7.70
2019-02-22T05:40:30.229Z,7.60
2019-02-22T05:42:59.647Z,7.60
2019-02-22T05:45:29.078Z,7.60
2019-02-22T05:47:58.494Z,7.50
2019-02-22T05:50:27.899Z,7.50
2019-02-22T05:52:57.604Z,7.50
2019-02-22T05:55:27.016Z,7.50
2019-02-22T05:57:56.438Z,7.50
2019-02-22T06:00:25.863Z,7.50
2019-02-22T06:02:55.257Z,7.50
2019-02-22T06:05:24.944Z,7.50
2019-02-22T06:07:54.351Z,7.50
2019-02-22T06:10:23.789Z,7.50
2019-02-22T06:12:53.199Z,7.50
2019-02-22T06:15:22.595Z,7.50
2019-02-22T06:17:52.028Z,7.50
2019-02-22T06:20:21.467Z,7.50
2019-02-22T06:22:50.924Z,7.50
2019-02-22T06:25:20.338Z,7.50
2019-02-22T06:27:49.760Z,7.50
2019-02-22T06:30:19.375Z,7.50
2019-02-22T06:32:48.773Z,7.50
2019-02-22T06:35:18.194Z,7.50
2019-02-22T06:37:47.596Z,7.50
2019-02-22T06:40:17.143Z,7.50
2019-02-22T06:42:46.556Z,7.50
2019-02-22T06:45:16.076Z,7.50
2019-02-22T06:47:45.766Z,7.50
2019-02-22T06:50:15.174Z,7.50
2019-02-22T06:52:44.642Z,7.60
2019-02-22T06:55:14.036Z,7.60
2019-02-22T06:57:43.428Z,7.60
2019-02-22T07:00:14.368Z,7.50
2019-02-22T07:02:43.767Z,7.50
2019-02-22T07:05:13.239Z,7.50
2019-02-22T07:07:42.636Z,7.50
2019-02-22T07:10:12.269Z,7.50
2019-02-22T07:12:43.337Z,7.50
2019-02-22T07:15:12.797Z,7.40
2019-02-22T07:17:42.288Z,7.40
2019-02-22T07:20:12.653Z,7.50
2019-02-22T07:22:42.054Z,7.50
2019-02-22T07:25:12.840Z,7.40
2019-02-22T07:27:42.228Z,7.40
2019-02-22T07:30:12.641Z,7.40
2019-02-22T07:32:42.269Z,7.40
2019-02-22T07:35:14.089Z,7.40
2019-02-22T07:37:42.973Z,7.40
2019-02-22T07:40:12.653Z,7.40
2019-02-22T07:42:42.111Z,7.40
2019-02-22T07:45:12.147Z,7.50
2019-02-22T07:47:41.612Z,7.50
2019-02-22T07:50:11.640Z,7.60
2019-02-22T07:52:41.058Z,7.50
2019-02-22T07:55:11.339Z,7.50
2019-02-22T07:57:40.814Z,7.60
2019-02-22T08:00:14.096Z,7.60
2019-02-22T08:02:43.513Z,7.60
2019-02-22T08:05:12.963Z,7.70
2019-02-22T08:07:42.409Z,7.70
2019-02-22T08:10:11.897Z,7.70
2019-02-22T08:12:41.335Z,7.70
2019-02-22T08:15:11.602Z,7.80
2019-02-22T08:17:41.436Z,7.80
2019-02-22T08:20:11.030Z,7.80
2019-02-22T08:22:40.496Z,7.90
2019-02-22T08:25:10.010Z,7.90
2019-02-22T08:27:41.748Z,7.90
2019-02-22T08:30:11.832Z,7.90
2019-02-22T08:32:41.315Z,8.00
2019-02-22T08:35:10.806Z,8.00
2019-02-22T08:37:40.292Z,8.10
2019-02-22T08:40:11.251Z,8.10
2019-02-22T08:42:40.683Z,8.20
2019-02-22T08:45:11.032Z,8.20
2019-02-22T08:47:40.440Z,8.20
2019-02-22T08:50:10.090Z,8.20
2019-02-22T08:52:39.516Z,8.30
2019-02-22T08:55:08.996Z,8.30
2019-02-22T08:57:38.407Z,8.40
2019-02-22T09:00:12.333Z,8.50
2019-02-22T09:02:42.023Z,8.50
2019-02-22T09:05:11.559Z,8.50
2019-02-22T09:07:40.991Z,8.50
2019-02-22T09:10:12.399Z,8.50
2019-02-22T09:12:41.863Z,8.50
2019-02-22T09:15:11.803Z,8.50
2019-02-22T09:17:41.286Z,8.70
2019-02-22T09:20:12.619Z,8.70
2019-02-22T09:22:42.046Z,8.80
2019-02-22T09:25:11.544Z,8.90
2019-02-22T09:27:41.224Z,8.90
2019-02-22T09:30:12.459Z,8.80
2019-02-22T09:32:41.909Z,8.90
2019-02-22T09:35:14.252Z,8.90
2019-02-22T09:37:43.702Z,9.10
2019-02-22T09:40:14.728Z,9.00
2019-02-22T09:42:44.373Z,9.00
2019-02-22T09:45:14.089Z,9.00
2019-02-22T09:47:43.518Z,9.00
2019-02-22T09:50:15.646Z,9.00
2019-02-22T09:52:45.232Z,9.10
2019-02-22T09:55:14.755Z,9.20
2019-02-22T09:57:44.261Z,9.20
2019-02-22T10:00:15.366Z,9.40
2019-02-22T10:02:45.091Z,9.30
2019-02-22T10:05:15.526Z,9.40
2019-02-22T10:07:44.921Z,9.50
2019-02-22T10:10:14.448Z,9.60
2019-02-22T10:12:43.862Z,9.70
2019-02-22T10:15:13.424Z,9.80
2019-02-22T10:17:42.853Z,9.80
2019-02-22T10:20:12.786Z,9.90
2019-02-22T10:22:42.190Z,10.00
2019-02-22T10:25:11.628Z,10.10
2019-02-22T10:27:41.034Z,10.10
2019-02-22T10:30:13.792Z,10.10
2019-02-22T10:32:43.339Z,10.30
2019-02-22T10:35:12.826Z,10.30
2019-02-22T10:37:42.288Z,10.40
2019-02-22T10:40:11.930Z,10.40
2019-02-22T10:42:41.348Z,10.40
2019-02-22T10:45:11.706Z,10.50
2019-02-22T10:47:41.145Z,10.60
2019-02-22T10:50:11.030Z,10.60
2019-02-22T10:52:40.446Z,10.70
2019-02-22T10:55:12.461Z,10.80
2019-02-22T10:57:41.904Z,10.90
2019-02-22T11:00:14.837Z,10.90
2019-02-22T11:02:44.267Z,10.80
2019-02-22T11:05:13.741Z,10.80
2019-02-22T11:07:43.270Z,10.70
2019-02-22T11:10:14.541Z,10.80
2019-02-22T11:12:44.125Z,10.80
2019-02-22T11:15:14.309Z,10.90
2019-02-22T11:17:43.738Z,10.80
2019-02-22T11:20:13.338Z,10.90
2019-02-22T11:22:43.020Z,10.90
2019-02-22T11:25:14.898Z,10.90
2019-02-22T11:27:44.332Z,10.90
2019-02-22T11:30:15.475Z,10.90
2019-02-22T11:32:45.003Z,11.00
2019-02-22T11:35:14.579Z,11.00
2019-02-22T11:37:44.283Z,10.90
2019-02-22T11:40:13.842Z,11.00
2019-02-22T11:42:43.531Z,11.10
2019-02-22T11:45:13.024Z,11.30
2019-02-22T11:47:42.437Z,11.40
2019-02-22T11:50:13.467Z,11.60
2019-02-22T11:52:42.867Z,11.80
2019-02-22T11:55:13.124Z,11.90
2019-02-22T11:57:43.007Z,12.10
2019-02-22T12:00:20.869Z,12.30
2019-02-22T12:02:50.324Z,12.60
2019-02-22T12:05:19.995Z,12.80
2019-02-22T12:07:49.443Z,13.10
2019-02-22T12:10:18.902Z,13.20
2019-02-22T12:12:48.629Z,13.40
2019-02-22T12:15:18.089Z,13.80
2019-02-22T12:17:47.512Z,14.00
2019-02-22T12:20:16.925Z,14.20
2019-02-22T12:22:46.370Z,14.50
2019-02-22T12:25:15.803Z,14.70
2019-02-22T12:27:45.245Z,14.80
2019-02-22T12:30:18.443Z,14.70
2019-02-22T12:32:47.887Z,14.60
2019-02-22T12:35:17.349Z,14.40
2019-02-22T12:37:46.839Z,14.20
2019-02-22T12:40:16.408Z,13.80
2019-02-22T12:42:46.093Z,13.40
2019-02-22T12:45:15.893Z,13.40
2019-02-22T12:47:45.588Z,13.50
2019-02-22T12:50:15.175Z,13.70
2019-02-22T12:52:44.593Z,13.80
2019-02-22T12:55:14.080Z,13.90
2019-02-22T12:57:43.501Z,13.80
2019-02-22T13:00:18.164Z,13.90
2019-02-22T13:02:47.567Z,14.10
2019-02-22T13:05:24.195Z,14.10
2019-02-22T13:07:53.591Z,14.00
2019-02-22T13:10:23.071Z,14.20
2019-02-22T13:12:52.501Z,14.20
2019-02-22T13:15:21.948Z,14.20
2019-02-22T13:17:51.455Z,14.20
2019-02-22T13:20:20.947Z,14.20
2019-02-22T13:22:50.378Z,14.20
2019-02-22T13:25:19.851Z,14.20
2019-02-22T13:27:49.284Z,14.30
2019-02-22T13:30:18.751Z,14.30
2019-02-22T13:32:48.491Z,14.30
2019-02-22T13:35:17.929Z,14.30
2019-02-22T13:37:47.359Z,14.20
2019-02-22T13:40:18.093Z,14.20
2019-02-22T13:42:47.499Z,14.10
2019-02-22T13:45:26.261Z,14.00
2019-02-22T13:47:48.603Z,14.10
2019-02-22T13:50:19.610Z,14.10
2019-02-22T13:52:49.040Z,14.10
2019-02-22T13:55:18.468Z,14.10
2019-02-22T13:57:47.977Z,14.00
2019-02-22T14:00:20.264Z,14.00
2019-02-22T14:02:49.679Z,14.10
2019-02-22T14:05:19.123Z,14.10
2019-02-22T14:07:58.592Z,14.20
2019-02-22T14:10:28.213Z,14.00
2019-02-22T14:12:57.619Z,14.10
2019-02-22T14:15:37.431Z,14.20
2019-02-22T14:17:58.182Z,14.20
2019-02-22T14:20:27.588Z,14.20
2019-02-22T14:22:57.029Z,14.20
2019-02-22T14:25:26.436Z,14.10
2019-02-22T14:27:55.847Z,14.10
2019-02-22T14:30:25.265Z,14.00
2019-02-22T14:32:54.687Z,14.10
2019-02-22T14:35:24.122Z,14.00
2019-02-22T14:37:53.563Z,13.90
2019-02-22T14:40:23.067Z,13.70
2019-02-22T14:42:52.460Z,13.70
2019-02-22T14:45:21.880Z,13.70
2019-02-22T14:47:51.428Z,13.70
2019-02-22T14:50:23.137Z,13.70
2019-02-22T14:52:52.131Z,13.70
2019-02-22T14:55:21.529Z,13.70
2019-02-22T14:57:50.955Z,13.80
2019-02-22T15:00:22.084Z,13.90
2019-02-22T15:02:51.578Z,13.90
2019-02-22T15:05:21.021Z,13.90
2019-02-22T15:07:50.594Z,13.90
2019-02-22T15:10:20.016Z,14.00
2019-02-22T15:12:49.558Z,14.10
2019-02-22T15:15:22.104Z,14.10
2019-02-22T15:17:53.176Z,14.00
2019-02-22T15:20:23.003Z,13.90
2019-02-22T15:22:52.617Z,13.90
2019-02-22T15:25:22.031Z,13.90
2019-02-22T15:27:51.525Z,13.70
2019-02-22T15:30:21.147Z,13.70
2019-02-22T15:32:50.595Z,13.60
2019-02-22T15:35:20.231Z,13.50
2019-02-22T15:37:49.905Z,13.50
2019-02-22T15:40:19.384Z,13.40
2019-02-22T15:42:48.807Z,13.40
2019-02-22T15:45:19.858Z,13.30
2019-02-22T15:47:49.576Z,13.30
2019-02-22T15:50:19.996Z,13.30
2019-02-22T15:52:50.396Z,13.30
2019-02-22T15:55:19.901Z,13.30
2019-02-22T15:57:49.335Z,13.30
2019-02-22T16:00:23.454Z,13.30
2019-02-22T16:02:52.874Z,13.40
2019-02-22T16:05:29.903Z,13.40
2019-02-22T16:07:59.407Z,13.50
2019-02-22T16:10:28.964Z,13.50
2019-02-22T16:12:58.469Z,13.50
2019-02-22T16:15:27.948Z,13.40
2019-02-22T16:17:57.390Z,13.30
2019-02-22T16:20:32.940Z,13.30
2019-02-22T16:23:02.376Z,13.30
2019-02-22T16:25:31.773Z,13.20
2019-02-22T16:28:01.186Z,13.20
2019-02-22T16:30:31.732Z,13.10
2019-02-22T16:33:01.201Z,13.10
2019-02-22T16:35:30.694Z,13.10
2019-02-22T16:38:00.130Z,13.10
2019-02-22T16:40:29.883Z,13.10
2019-02-22T16:42:59.318Z,13.10
2019-02-22T16:45:28.726Z,13.00
2019-02-22T16:51:16.475Z,12.90
2019-02-22T16:53:45.888Z,12.90
2019-02-22T16:56:15.316Z,12.90
2019-02-22T16:58:44.753Z,12.80
2019-02-22T17:01:14.234Z,12.80
2019-02-22T17:03:43.659Z,12.70
2019-02-22T17:06:13.093Z,12.70
2019-02-22T17:08:42.813Z,12.70
2019-02-22T17:11:12.326Z,12.80
2019-02-22T17:13:41.856Z,12.80
2019-02-22T17:16:11.425Z,12.70
2019-02-22T17:18:43.009Z,12.60
2019-02-22T17:21:12.855Z,12.60
2019-02-22T17:23:42.409Z,12.60
2019-02-22T17:26:14.623Z,12.60
2019-02-22T17:28:44.057Z,12.60
2019-02-22T17:31:13.877Z,12.70
2019-02-22T17:33:43.323Z,12.60
2019-02-22T17:36:12.742Z,12.60
2019-02-22T17:38:42.173Z,12.50
2019-02-22T17:41:11.657Z,12.50
2019-02-22T17:43:41.130Z,12.50
2019-02-22T17:46:10.554Z,12.40
2019-02-22T17:48:40.370Z,12.40
2019-02-22T17:51:09.799Z,12.30
2019-02-22T17:53:39.247Z,12.30
2019-02-22T17:56:08.813Z,12.20
2019-02-22T17:58:38.254Z,12.30
2019-02-22T18:01:08.133Z,12.30
2019-02-22T18:03:37.563Z,12.30
2019-02-22T18:06:07.004Z,12.20
2019-02-22T18:08:36.500Z,12.20
2019-02-22T18:11:05.947Z,12.10
2019-02-22T18:13:35.417Z,12.10
2019-02-22T18:16:05.188Z,12.00
2019-02-22T18:18:34.651Z,12.00
2019-02-22T18:21:04.172Z,12.00
2019-02-22T18:23:33.944Z,12.00
2019-02-22T18:26:03.385Z,11.90
2019-02-22T18:28:32.866Z,11.90
2019-02-22T18:31:02.337Z,11.90
2019-02-22T18:33:31.778Z,11.80
2019-02-22T18:36:01.205Z,11.70
2019-02-22T18:38:30.658Z,11.60
2019-02-22T18:41:00.087Z,11.60
2019-02-22T18:43:29.557Z,11.50
2019-02-22T18:45:58.976Z,11.50
2019-02-22T18:48:28.865Z,11.40
2019-02-22T18:50:58.383Z,11.40
2019-02-22T18:53:27.848Z,11.30
2019-02-22T18:55:57.373Z,11.10
2019-02-22T18:58:26.791Z,11.00
2019-02-22T19:00:56.378Z,10.90
2019-02-22T19:03:25.798Z,10.90
2019-02-22T19:05:55.312Z,10.80
2019-02-22T19:08:32.053Z,10.90
2019-02-22T19:10:55.932Z,10.90
2019-02-22T19:13:25.496Z,10.90
2019-02-22T19:15:54.969Z,10.80
2019-02-22T19:18:24.462Z,10.70
2019-02-22T19:20:54.248Z,10.60
2019-02-22T19:23:24.304Z,10.50
2019-02-22T19:25:53.743Z,10.50
2019-02-22T19:28:23.297Z,10.50
2019-02-22T19:30:52.716Z,10.50
2019-02-22T19:33:22.470Z,10.40
2019-02-22T19:35:52.354Z,10.30
2019-02-22T19:38:22.008Z,10.30
2019-02-22T19:40:51.692Z,10.20
2019-02-22T19:43:23.538Z,10.20
2019-02-22T19:45:53.057Z,10.10
2019-02-22T19:48:22.693Z,10.00
2019-02-22T19:50:52.611Z,10.00
2019-02-22T19:53:22.220Z,10.00
2019-02-22T19:55:51.859Z,10.00
2019-02-22T19:58:21.487Z,9.90
2019-02-22T20:00:51.005Z,9.80
2019-02-22T20:03:20.609Z,9.70
2019-02-22T20:05:50.025Z,9.40
2019-02-22T20:08:19.804Z,9.30
2019-02-22T20:10:49.309Z,9.20
2019-02-22T20:13:18.759Z,9.20
2019-02-22T20:15:48.512Z,9.20
2019-02-22T20:18:18.012Z,9.20
2019-02-22T20:20:47.474Z,9.20
2019-02-22T20:23:16.905Z,9.20
2019-02-22T20:25:46.340Z,9.30
2019-02-22T20:28:15.806Z,9.30
2019-02-22T20:30:45.211Z,9.30
2019-02-22T20:33:14.676Z,9.30
2019-02-22T20:35:44.799Z,9.30
2019-02-22T20:38:14.263Z,9.20
2019-02-22T20:40:43.694Z,9.20
2019-02-22T20:43:13.118Z,9.20
2019-02-22T20:45:42.695Z,9.20
2019-02-22T20:48:12.110Z,9.20
2019-02-22T20:50:41.537Z,9.10
2019-02-22T20:53:10.992Z,9.10
2019-02-22T20:55:40.407Z,9.10
2019-02-22T20:58:09.858Z,9.00
2019-02-22T21:00:39.631Z,9.10
2019-02-22T21:03:09.083Z,9.10
2019-02-22T21:05:38.502Z,9.00
2019-02-22T21:08:07.988Z,8.90
2019-02-22T21:10:37.492Z,8.70
2019-02-22T21:13:06.936Z,8.50
2019-02-22T21:15:36.384Z,8.30
2019-02-22T21:18:15.863Z,8.10
2019-02-22T21:20:37.009Z,7.90
2019-02-22T21:23:06.717Z,7.90
2019-02-22T21:25:36.155Z,7.80
2019-02-22T21:28:05.659Z,7.70
2019-02-22T21:30:35.505Z,7.70
2019-02-22T21:33:05.303Z,7.60
2019-02-22T21:35:34.815Z,7.60
2019-02-22T21:38:04.304Z,7.50
2019-02-22T21:40:33.759Z,7.40
2019-02-22T21:43:03.184Z,7.40
2019-02-22T21:45:33.022Z,7.50
2019-02-22T21:48:02.425Z,7.40
2019-02-22T21:50:31.850Z,7.40
2019-02-22T21:53:01.306Z,7.30
2019-02-22T21:55:30.714Z,7.30
2019-02-22T21:58:00.155Z,7.20
2019-02-22T22:00:31.385Z,7.20
2019-02-22T22:03:00.872Z,7.10
2019-02-22T22:05:30.476Z,7.00
2019-02-22T22:07:59.895Z,6.90
2019-02-22T22:10:29.479Z,6.80
2019-02-22T22:12:58.891Z,6.80
2019-02-22T22:15:28.313Z,6.70
2019-02-22T22:17:57.744Z,6.70
2019-02-22T22:20:27.171Z,6.70
2019-02-22T22:22:56.584Z,6.70
2019-02-22T22:25:26.000Z,6.60
2019-02-22T22:27:55.521Z,6.60
2019-02-22T22:30:25.030Z,6.50
2019-02-22T22:32:54.447Z,6.50
2019-02-22T22:35:23.867Z,6.50
2019-02-22T22:37:53.289Z,6.50
2019-02-22T22:40:22.815Z,6.40
2019-02-22T22:42:52.210Z,6.40
2019-02-22T22:45:21.658Z,6.30
2019-02-22T22:47:51.155Z,6.20
2019-02-22T22:50:20.653Z,6.20
2019-02-22T22:52:50.479Z,6.20
2019-02-22T22:55:19.899Z,6.10
2019-02-22T22:57:49.330Z,6.10
2019-02-22T23:00:52.635Z,6.10
2019-02-22T23:03:22.552Z,6.10
2019-02-22T23:05:52.086Z,6.00
2019-02-22T23:08:21.582Z,6.00
2019-02-22T23:10:51.168Z,6.10
2019-02-22T23:13:20.889Z,6.10
2019-02-22T23:15:50.378Z,6.10
2019-02-22T23:18:19.966Z,6.30
2019-02-22T23:20:49.734Z,6.40
2019-02-22T23:23:19.170Z,6.50
2019-02-22T23:25:48.689Z,6.50
2019-02-22T23:28:18.121Z,6.50
2019-02-22T23:30:47.539Z,6.50
2019-02-22T23:33:17.045Z,6.50
2019-02-22T23:35:46.547Z,6.60
2019-02-22T23:38:15.960Z,6.70
2019-02-22T23:40:45.388Z,6.70
2019-02-22T23:43:14.913Z,6.80
2019-02-22T23:45:44.325Z,6.80
2019-02-22T23:48:13.836Z,6.80
2019-02-22T23:50:43.249Z,6.80
2019-02-22T23:53:12.712Z,6.90
2019-02-22T23:55:42.530Z,6.90
2019-02-22T23:58:11.956Z,6.90
